Time;durP1;ratioP1;P1;durP2;ratioP2;P2;SDS_P1;SDS_P2;PMS_P1;PMS_P2;Temp;Humidity;BMP_temperature;BMP_pressure;BME280_temperature;BME280_humidity;BME280_pressure;Samples;Min_cycle;Max_cycle;Signal;HPM_P1;HPM_P2
2024/01/15 00:01:31;;;;;;;0.20;0.20;;;;;;;;;;6269502;28;20028;-83
2024/01/15 00:04:31;;;;;;;0.20;0.20;;;;;;;;;;6255682;28;20024;-83
2024/01/15 00:07:31;;;;;;;0.20;0.20;;;;;;;;;;6268181;28;20024;-83
2024/01/15 00:10:32;;;;;;;0.30;0.30;;;;;;;;;;6249279;28;20475;-84
2024/01/15 00:13:32;;;;;;;0.20;0.20;;;;;;;;;;6269172;28;20037;-83
2024/01/15 00:16:32;;;;;;;0.20;0.20;;;;;;;;;;6269502;28;20028;-83
2024/01/15 00:19:33;;;;;;;0.20;0.20;;;;;;;;;;6267377;28;20041;-83
2024/01/15 00:22:35;;;;;;;0.20;0.20;;;;;;;;;;6263635;28;20029;-83
2024/01/15 00:25:35;;;;;;;0.20;0.20;;;;;;;;;;6242767;28;20021;-83
2024/01/15 00:28:36;;;;;;;0.20;0.20;;;;;;;;;;6271906;28;20025;-83
2024/01/15 00:31:36;;;;;;;0.20;0.20;;;;;;;;;;6255016;28;20490;-83
2024/01/15 00:34:36;;;;;;;0.20;0.20;;;;;;;;;;6268881;28;20040;-83
2024/01/15 00:37:37;;;;;;;0.20;0.20;;;;;;;;;;6266102;28;20032;-83
2024/01/15 00:40:37;;;;;;;0.30;0.30;;;;;;;;;;6265207;28;20111;-83
2024/01/15 00:43:38;;;;;;;0.20;0.20;;;;;;;;;;6248479;28;20078;-83
2024/01/15 00:46:48;;;;;;;0.20;0.20;;;;;;;;;;6266877;28;20056;-83
2024/01/15 00:49:48;;;;;;;0.20;0.20;;;;;;;;;;6267850;28;20025;-83
2024/01/15 00:52:48;;;;;;;0.20;0.20;;;;;;;;;;6247478;28;20470;-83
2024/01/15 00:55:48;;;;;;;0.20;0.20;;;;;;;;;;6257501;28;20026;-83
2024/01/15 00:58:48;;;;;;;0.23;0.23;;;;;;;;;;6262306;28;20021;-86
2024/01/15 01:01:49;;;;;;;0.27;0.27;;;;;;;;;;6275463;28;20021;-86
2024/01/15 01:04:49;;;;;;;0.30;0.30;;;;;;;;;;6268411;28;20025;-86
2024/01/15 01:07:49;;;;;;;0.20;0.20;;;;;;;;;;6258312;28;20025;-83
2024/01/15 01:10:49;;;;;;;0.20;0.20;;;;;;;;;;6254954;28;20086;-83
2024/01/15 01:13:50;;;;;;;0.30;0.30;;;;;;;;;;6268056;28;20029;-83
2024/01/15 01:16:51;;;;;;;0.20;0.20;;;;;;;;;;6268364;28;20028;-83
2024/01/15 01:19:52;;;;;;;0.20;0.20;;;;;;;;;;6253705;28;20053;-83
2024/01/15 01:22:52;;;;;;;0.30;0.30;;;;;;;;;;6268092;28;20020;-83
2024/01/15 01:25:52;;;;;;;0.20;0.20;;;;;;;;;;6262329;28;20017;-82
2024/01/15 01:28:52;;;;;;;0.30;0.30;;;;;;;;;;6254401;28;20029;-83
2024/01/15 01:31:53;;;;;;;0.30;0.30;;;;;;;;;;6267537;28;20017;-84
2024/01/15 01:34:53;;;;;;;0.20;0.20;;;;;;;;;;6265643;28;20060;-84
2024/01/15 01:37:53;;;;;;;0.20;0.20;;;;;;;;;;6264496;28;20109;-83
2024/01/15 01:40:54;;;;;;;0.20;0.20;;;;;;;;;;6266713;28;20068;-83
2024/01/15 01:43:55;;;;;;;0.20;0.20;;;;;;;;;;6243792;28;20025;-83
2024/01/15 01:46:55;;;;;;;0.20;0.20;;;;;;;;;;6256588;28;20025;-83
2024/01/15 01:49:56;;;;;;;0.20;0.20;;;;;;;;;;6258913;28;20561;-83
2024/01/15 01:52:56;;;;;;;0.20;0.20;;;;;;;;;;6245081;28;20057;-82
2024/01/15 01:55:57;;;;;;;0.20;0.20;;;;;;;;;;6256144;28;20064;-83
2024/01/15 01:58:57;;;;;;;0.30;0.30;;;;;;;;;;6262149;28;20581;-83
2024/01/15 02:01:58;;;;;;;0.20;0.20;;;;;;;;;;6251675;28;20017;-82
2024/01/15 02:04:58;;;;;;;0.30;0.30;;;;;;;;;;6265926;28;20021;-83
2024/01/15 02:07:59;;;;;;;0.20;0.20;;;;;;;;;;6256929;28;20017;-85
2024/01/15 02:10:59;;;;;;;0.20;0.20;;;;;;;;;;6257630;28;20107;-85
2024/01/15 02:13:59;;;;;;;0.20;0.20;;;;;;;;;;6252731;28;20088;-86
2024/01/15 02:17:00;;;;;;;0.20;0.20;;;;;;;;;;6261077;28;20067;-86
2024/01/15 02:20:00;;;;;;;0.20;0.20;;;;;;;;;;6267139;28;20128;-83
2024/01/15 02:23:10;;;;;;;0.20;0.20;;;;;;;;;;6253186;28;20590;-83
2024/01/15 02:26:11;;;;;;;0.25;0.25;;;;;;;;;;6262108;28;20021;-83
2024/01/15 02:29:11;;;;;;;0.20;0.20;;;;;;;;;;6263864;28;20111;-84
2024/01/15 02:32:12;;;;;;;0.20;0.20;;;;;;;;;;6265822;28;20137;-84
2024/01/15 02:35:12;;;;;;;0.20;0.20;;;;;;;;;;6268720;28;20071;-83
2024/01/15 02:38:12;;;;;;;0.30;0.30;;;;;;;;;;6259803;28;20040;-86
2024/01/15 02:41:14;;;;;;;0.20;0.20;;;;;;;;;;6250956;28;20250;-86
2024/01/15 02:44:14;;;;;;;0.20;0.20;;;;;;;;;;6264384;28;20049;-86
2024/01/15 02:47:14;;;;;;;0.30;0.30;;;;;;;;;;6267483;28;20059;-86
2024/01/15 02:50:15;;;;;;;0.20;0.20;;;;;;;;;;6255634;28;20083;-86
2024/01/15 02:53:15;;;;;;;0.20;0.20;;;;;;;;;;6261499;28;20025;-86
2024/01/15 02:56:15;;;;;;;0.20;0.20;;;;;;;;;;6266441;28;20024;-85
2024/01/15 02:59:16;;;;;;;0.30;0.30;;;;;;;;;;6266426;28;20025;-86
2024/01/15 03:02:16;;;;;;;0.30;0.30;;;;;;;;;;6264940;28;20024;-85
2024/01/15 03:05:16;;;;;;;0.20;0.20;;;;;;;;;;6270491;28;20012;-86
2024/01/15 03:08:17;;;;;;;0.20;0.20;;;;;;;;;;6267420;28;20017;-86
2024/01/15 03:11:17;;;;;;;0.30;0.30;;;;;;;;;;6273965;28;20027;-86
2024/01/15 03:14:17;;;;;;;0.20;0.20;;;;;;;;;;6280416;28;20037;-86
2024/01/15 03:17:17;;;;;;;0.20;0.20;;;;;;;;;;6295236;28;20033;-86
2024/01/15 03:20:18;;;;;;;0.20;0.20;;;;;;;;;;6279350;28;20050;-87
2024/01/15 03:23:18;;;;;;;0.20;0.20;;;;;;;;;;6276657;28;20023;-86
2024/01/15 03:26:19;;;;;;;0.20;0.20;;;;;;;;;;6284833;28;20039;-86
2024/01/15 03:29:19;;;;;;;0.20;0.20;;;;;;;;;;6268840;28;20032;-86
2024/01/15 03:32:20;;;;;;;0.20;0.20;;;;;;;;;;6259562;28;20024;-86
2024/01/15 03:35:21;;;;;;;0.20;0.20;;;;;;;;;;6266989;28;20032;-86
2024/01/15 03:38:23;;;;;;;0.30;0.30;;;;;;;;;;6269655;28;20094;-84
2024/01/15 03:41:23;;;;;;;0.20;0.20;;;;;;;;;;6268532;28;20028;-83
2024/01/15 03:44:23;;;;;;;0.30;0.30;;;;;;;;;;6268384;28;20057;-83
2024/01/15 03:47:23;;;;;;;0.20;0.20;;;;;;;;;;6269857;28;20108;-83
2024/01/15 03:50:24;;;;;;;0.20;0.20;;;;;;;;;;6268786;28;20120;-86
2024/01/15 03:53:24;;;;;;;0.20;0.20;;;;;;;;;;6271562;28;20033;-86
2024/01/15 03:56:24;;;;;;;0.20;0.20;;;;;;;;;;6270073;28;20468;-86
2024/01/15 03:59:25;;;;;;;0.20;0.20;;;;;;;;;;6263952;28;20094;-86
2024/01/15 04:02:25;;;;;;;0.20;0.20;;;;;;;;;;6269144;28;20055;-86
2024/01/15 04:05:26;;;;;;;0.20;0.20;;;;;;;;;;6267643;28;20260;-86
2024/01/15 04:08:26;;;;;;;0.30;0.30;;;;;;;;;;6266093;28;20028;-86
2024/01/15 04:11:26;;;;;;;0.27;0.27;;;;;;;;;;6268034;28;20041;-87
2024/01/15 04:14:26;;;;;;;0.20;0.20;;;;;;;;;;6261931;28;20029;-86
2024/01/15 04:17:27;;;;;;;0.20;0.20;;;;;;;;;;6253681;28;20479;-86
2024/01/15 04:20:27;;;;;;;0.20;0.20;;;;;;;;;;6265279;28;20419;-86
2024/01/15 04:23:28;;;;;;;0.20;0.20;;;;;;;;;;6267801;28;20025;-86
2024/01/15 04:26:28;;;;;;;0.20;0.20;;;;;;;;;;6260494;28;20128;-86
2024/01/15 04:29:29;;;;;;;0.20;0.20;;;;;;;;;;6259702;28;20025;-86
2024/01/15 04:32:29;;;;;;;0.20;0.20;;;;;;;;;;6268831;28;20027;-85
2024/01/15 04:35:30;;;;;;;0.20;0.20;;;;;;;;;;6264547;28;20017;-86
2024/01/15 04:38:30;;;;;;;0.20;0.20;;;;;;;;;;6276699;28;20104;-86
2024/01/15 04:41:31;;;;;;;0.20;0.20;;;;;;;;;;6261180;28;20056;-86
2024/01/15 04:44:31;;;;;;;0.20;0.20;;;;;;;;;;6272205;28;20356;-86
2024/01/15 04:47:31;;;;;;;0.30;0.30;;;;;;;;;;6277848;28;20077;-87
2024/01/15 04:50:31;;;;;;;0.20;0.20;;;;;;;;;;6263249;28;20087;-86
2024/01/15 04:53:32;;;;;;;0.30;0.30;;;;;;;;;;6265903;28;20124;-86
2024/01/15 04:56:33;;;;;;;0.20;0.20;;;;;;;;;;6265573;28;20035;-86
2024/01/15 04:59:33;;;;;;;0.30;0.30;;;;;;;;;;6253683;28;20110;-86
2024/01/15 05:02:33;;;;;;;0.30;0.30;;;;;;;;;;6269317;28;20131;-86
2024/01/15 05:05:33;;;;;;;0.20;0.20;;;;;;;;;;6280885;28;20029;-86
2024/01/15 05:08:34;;;;;;;0.20;0.20;;;;;;;;;;6265546;28;20025;-86
2024/01/15 05:11:35;;;;;;;0.20;0.20;;;;;;;;;;6257169;28;20075;-86
2024/01/15 05:14:35;;;;;;;0.30;0.30;;;;;;;;;;6252155;28;20499;-86
2024/01/15 05:17:36;;;;;;;0.20;0.20;;;;;;;;;;6259865;28;20073;-86
2024/01/15 05:20:36;;;;;;;0.20;0.20;;;;;;;;;;6266165;28;20149;-87
2024/01/15 05:23:36;;;;;;;0.20;0.20;;;;;;;;;;6266316;28;20510;-87
2024/01/15 05:26:36;;;;;;;0.20;0.20;;;;;;;;;;6265626;28;20122;-87
2024/01/15 05:29:39;;;;;;;0.20;0.20;;;;;;;;;;6253843;28;20036;-88
2024/01/15 05:32:40;;;;;;;0.22;0.22;;;;;;;;;;6264979;28;20033;-87
2024/01/15 05:35:41;;;;;;;0.20;0.20;;;;;;;;;;6266111;28;20491;-85
2024/01/15 05:38:44;;;;;;;0.20;0.20;;;;;;;;;;6267713;28;20092;-86
2024/01/15 05:41:45;;;;;;;0.20;0.20;;;;;;;;;;6266700;28;20032;-86
2024/01/15 05:44:45;;;;;;;0.20;0.20;;;;;;;;;;6263733;28;20029;-86
2024/01/15 05:47:45;;;;;;;0.30;0.30;;;;;;;;;;6256534;28;20028;-85
2024/01/15 05:50:45;;;;;;;0.20;0.20;;;;;;;;;;6255864;28;20550;-86
2024/01/15 05:53:46;;;;;;;0.23;0.23;;;;;;;;;;6261543;28;20017;-85
2024/01/15 05:56:46;;;;;;;0.20;0.20;;;;;;;;;;6254776;28;20029;-85
2024/01/15 05:59:46;;;;;;;0.20;0.20;;;;;;;;;;6252456;28;20465;-87
2024/01/15 06:02:46;;;;;;;0.30;0.30;;;;;;;;;;6248330;28;20040;-87
2024/01/15 06:05:47;;;;;;;0.20;0.20;;;;;;;;;;6269330;28;20024;-86
2024/01/15 06:08:48;;;;;;;0.20;0.20;;;;;;;;;;6263689;28;20462;-85
2024/01/15 06:11:48;;;;;;;0.20;0.20;;;;;;;;;;6263048;28;20081;-87
2024/01/15 06:14:48;;;;;;;0.20;0.20;;;;;;;;;;6260485;28;20033;-85
2024/01/15 06:17:48;;;;;;;0.20;0.20;;;;;;;;;;6262106;28;20048;-86
2024/01/15 06:20:48;;;;;;;0.20;0.20;;;;;;;;;;6263102;28;20126;-85
2024/01/15 06:23:51;;;;;;;0.23;0.23;;;;;;;;;;6256346;28;20041;-87
2024/01/15 06:26:51;;;;;;;0.20;0.20;;;;;;;;;;6264408;28;20065;-86
2024/01/15 06:29:52;;;;;;;0.20;0.20;;;;;;;;;;6260609;28;20033;-86
2024/01/15 06:32:52;;;;;;;0.20;0.20;;;;;;;;;;6266603;28;20021;-86
2024/01/15 06:35:52;;;;;;;0.20;0.20;;;;;;;;;;6261797;28;20043;-86
2024/01/15 06:38:52;;;;;;;0.30;0.30;;;;;;;;;;6263356;28;20048;-86
2024/01/15 06:41:53;;;;;;;0.20;0.20;;;;;;;;;;6268056;28;20029;-86
2024/01/15 06:44:53;;;;;;;0.30;0.30;;;;;;;;;;6266567;28;20250;-86
2024/01/15 06:47:53;;;;;;;0.30;0.30;;;;;;;;;;6262330;28;20120;-86
2024/01/15 06:50:53;;;;;;;0.20;0.20;;;;;;;;;;6263494;28;20492;-86
2024/01/15 06:53:54;;;;;;;0.30;0.30;;;;;;;;;;6270684;28;20025;-86
2024/01/15 06:56:54;;;;;;;0.20;0.20;;;;;;;;;;6264389;28;20029;-86
2024/01/15 06:59:54;;;;;;;0.20;0.20;;;;;;;;;;6252424;28;20035;-86
2024/01/15 07:02:55;;;;;;;0.20;0.20;;;;;;;;;;6272690;28;20442;-86
2024/01/15 07:05:55;;;;;;;0.20;0.20;;;;;;;;;;6270528;28;20017;-87
2024/01/15 07:08:55;;;;;;;0.30;0.30;;;;;;;;;;6269169;28;20399;-86
2024/01/15 07:11:57;;;;;;;0.20;0.20;;;;;;;;;;6258986;28;20029;-86
2024/01/15 07:14:58;;;;;;;0.30;0.30;;;;;;;;;;6253684;28;20068;-86
2024/01/15 07:17:58;;;;;;;0.20;0.20;;;;;;;;;;6267941;28;20029;-83
2024/01/15 07:20:59;;;;;;;0.20;0.20;;;;;;;;;;6268874;28;20037;-83
2024/01/15 07:24:00;;;;;;;0.20;0.20;;;;;;;;;;6269425;28;20435;-83
2024/01/15 07:27:01;;;;;;;0.20;0.20;;;;;;;;;;6279069;28;20020;-83
2024/01/15 07:30:03;;;;;;;0.20;0.20;;;;;;;;;;6258606;28;20033;-83
2024/01/15 07:33:04;;;;;;;0.20;0.20;;;;;;;;;;6261514;28;20158;-83
2024/01/15 07:36:04;;;;;;;0.20;0.20;;;;;;;;;;6275927;28;20402;-83
2024/01/15 07:39:05;;;;;;;0.20;0.20;;;;;;;;;;6254260;28;20021;-83
2024/01/15 07:42:06;;;;;;;0.20;0.20;;;;;;;;;;6268921;28;20029;-83
2024/01/15 07:45:06;;;;;;;0.30;0.30;;;;;;;;;;6271197;28;20032;-83
2024/01/15 07:48:06;;;;;;;0.20;0.20;;;;;;;;;;6272603;28;20021;-82
2024/01/15 07:51:07;;;;;;;0.20;0.20;;;;;;;;;;6272297;28;20022;-84
2024/01/15 07:54:08;;;;;;;0.20;0.20;;;;;;;;;;6267591;28;20557;-83
2024/01/15 07:57:08;;;;;;;0.20;0.20;;;;;;;;;;6262249;28;20128;-82
2024/01/15 08:00:09;;;;;;;0.20;0.20;;;;;;;;;;6269893;28;20029;-84
2024/01/15 08:03:09;;;;;;;0.20;0.20;;;;;;;;;;6271446;28;20021;-83
2024/01/15 08:06:13;;;;;;;0.20;0.20;;;;;;;;;;6260120;28;20447;-83
2024/01/15 08:09:13;;;;;;;0.20;0.20;;;;;;;;;;6261754;28;20105;-83
2024/01/15 08:12:13;;;;;;;0.20;0.20;;;;;;;;;;6268262;28;20313;-83
2024/01/15 08:15:14;;;;;;;0.20;0.20;;;;;;;;;;6265526;28;20453;-83
2024/01/15 08:18:14;;;;;;;0.20;0.20;;;;;;;;;;6270026;28;20028;-83
2024/01/15 08:21:14;;;;;;;0.20;0.20;;;;;;;;;;6254866;28;20088;-84
2024/01/15 08:24:14;;;;;;;0.20;0.20;;;;;;;;;;6263374;28;20052;-82
2024/01/15 08:27:15;;;;;;;0.20;0.20;;;;;;;;;;6268145;28;20107;-83
2024/01/15 08:30:15;;;;;;;0.20;0.20;;;;;;;;;;6265040;28;20395;-83
2024/01/15 08:33:15;;;;;;;0.30;0.30;;;;;;;;;;6266648;28;20056;-83
2024/01/15 08:36:15;;;;;;;0.20;0.20;;;;;;;;;;6257581;28;20035;-83
2024/01/15 08:39:16;;;;;;;0.20;0.20;;;;;;;;;;6268223;28;20035;-83
2024/01/15 08:42:16;;;;;;;0.20;0.20;;;;;;;;;;6268810;28;20024;-83
2024/01/15 08:45:16;;;;;;;0.20;0.20;;;;;;;;;;6267155;28;20032;-83
2024/01/15 08:48:17;;;;;;;0.20;0.20;;;;;;;;;;6262749;28;20106;-83
2024/01/15 08:51:18;;;;;;;0.20;0.20;;;;;;;;;;6256203;28;20009;-83
2024/01/15 08:54:19;;;;;;;0.20;0.20;;;;;;;;;;6262229;28;20535;-83
2024/01/15 08:57:19;;;;;;;0.20;0.20;;;;;;;;;;6267683;28;20025;-85
2024/01/15 09:00:19;;;;;;;0.30;0.30;;;;;;;;;;6267769;28;20033;-83
2024/01/15 09:03:19;;;;;;;0.20;0.20;;;;;;;;;;6267125;28;20048;-84
2024/01/15 09:06:20;;;;;;;0.20;0.20;;;;;;;;;;6267689;28;20475;-83
2024/01/15 09:09:20;;;;;;;0.20;0.20;;;;;;;;;;6266058;28;20377;-83
2024/01/15 09:12:22;;;;;;;0.20;0.20;;;;;;;;;;6260273;28;20043;-83
2024/01/15 09:15:23;;;;;;;0.20;0.20;;;;;;;;;;6256395;28;20112;-83
2024/01/15 09:18:23;;;;;;;0.20;0.20;;;;;;;;;;6256764;28;20021;-83
2024/01/15 09:21:31;;;;;;;0.20;0.20;;;;;;;;;;6263066;28;20048;-83
2024/01/15 09:24:32;;;;;;;0.20;0.20;;;;;;;;;;6261233;28;20100;-83
2024/01/15 09:27:34;;;;;;;0.20;0.20;;;;;;;;;;6260686;28;20038;-84
2024/01/15 09:30:34;;;;;;;0.20;0.20;;;;;;;;;;6254685;28;20078;-84
2024/01/15 09:33:34;;;;;;;0.20;0.20;;;;;;;;;;6257688;28;20029;-83
2024/01/15 09:36:39;;;;;;;0.20;0.20;;;;;;;;;;6268348;28;20024;-84
2024/01/15 09:39:40;;;;;;;0.20;0.20;;;;;;;;;;6265211;28;20077;-84
2024/01/15 09:42:40;;;;;;;0.20;0.20;;;;;;;;;;6263184;28;20013;-84
2024/01/15 09:45:43;;;;;;;0.20;0.20;;;;;;;;;;6266500;28;20036;-83
2024/01/15 09:48:45;;;;;;;0.20;0.20;;;;;;;;;;6254352;28;20129;-84
2024/01/15 09:51:46;;;;;;;0.20;0.20;;;;;;;;;;6277882;28;20576;-84
2024/01/15 09:54:46;;;;;;;0.20;0.20;;;;;;;;;;6261460;28;20021;-84
2024/01/15 09:57:46;;;;;;;0.20;0.20;;;;;;;;;;6262014;28;20027;-84
2024/01/15 10:00:49;;;;;;;0.20;0.20;;;;;;;;;;6253918;28;20029;-84
2024/01/15 10:03:50;;;;;;;0.20;0.20;;;;;;;;;;6268267;28;20418;-84
2024/01/15 10:06:51;;;;;;;0.20;0.20;;;;;;;;;;6261062;28;20063;-84
2024/01/15 10:09:51;;;;;;;0.20;0.20;;;;;;;;;;6264133;28;20040;-85
2024/01/15 10:12:52;;;;;;;0.20;0.20;;;;;;;;;;6257894;28;20030;-85
2024/01/15 10:15:52;;;;;;;0.20;0.20;;;;;;;;;;6256079;28;20104;-84
2024/01/15 10:18:53;;;;;;;0.20;0.20;;;;;;;;;;6260557;28;20051;-87
2024/01/15 10:21:53;;;;;;;0.20;0.20;;;;;;;;;;6253743;28;20080;-87
2024/01/15 10:24:53;;;;;;;0.20;0.20;;;;;;;;;;6249844;28;20158;-88
2024/01/15 10:28:04;;;;;;;0.20;0.20;;;;;;;;;;6259094;28;20013;-88
2024/01/15 10:31:04;;;;;;;0.20;0.20;;;;;;;;;;6264668;28;20029;-88
2024/01/15 10:34:12;;;;;;;0.20;0.20;;;;;;;;;;6264138;28;20489;-89
2024/01/15 10:37:15;;;;;;;0.20;0.20;;;;;;;;;;6257293;28;20071;-88
2024/01/15 10:40:16;;;;;;;0.20;0.20;;;;;;;;;;6267479;28;20021;-88
2024/01/15 10:43:17;;;;;;;0.20;0.20;;;;;;;;;;6254794;28;20407;-88
2024/01/15 10:46:17;;;;;;;0.20;0.20;;;;;;;;;;6262503;28;20438;-89
2024/01/15 10:49:20;;;;;;;0.20;0.20;;;;;;;;;;6266395;28;20029;-91
2024/01/15 10:52:23;;;;;;;0.20;0.20;;;;;;;;;;6266310;28;20025;-90
2024/01/15 10:55:29;;;;;;;0.20;0.20;;;;;;;;;;6262063;28;20502;-90
2024/01/15 10:58:31;;;;;;;0.20;0.20;;;;;;;;;;6266112;28;20017;-89
2024/01/15 11:01:34;;;;;;;0.20;0.20;;;;;;;;;;6264460;28;20071;-91
2024/01/15 11:04:35;;;;;;;0.20;0.20;;;;;;;;;;6268275;28;20028;-90
2024/01/15 11:07:35;;;;;;;0.20;0.20;;;;;;;;;;6267405;28;20025;-91
2024/01/15 11:10:46;;;;;;;0.20;0.20;;;;;;;;;;6273464;28;20025;-91
2024/01/15 11:13:51;;;;;;;0.20;0.20;;;;;;;;;;6244438;28;20045;-91
2024/01/15 11:16:57;;;;;;;0.20;0.20;;;;;;;;;;6259320;28;20441;-92
2024/01/15 11:20:00;;;;;;;0.20;0.20;;;;;;;;;;6252741;28;20041;-91
2024/01/15 11:23:00;;;;;;;0.20;0.20;;;;;;;;;;6263603;28;20023;-91
2024/01/15 11:26:00;;;;;;;0.20;0.20;;;;;;;;;;6266270;28;20013;-93
2024/01/15 11:29:03;;;;;;;0.20;0.20;;;;;;;;;;6263707;28;20029;-92
2024/01/15 11:32:09;;;;;;;0.20;0.20;;;;;;;;;;6270950;28;20147;-91
2024/01/15 11:35:10;;;;;;;0.20;0.20;;;;;;;;;;6268738;28;20398;-92
2024/01/15 11:38:10;;;;;;;0.20;0.20;;;;;;;;;;6251227;28;20021;-92
2024/01/15 11:41:17;;;;;;;0.20;0.20;;;;;;;;;;6270238;28;20013;-92
2024/01/15 11:44:17;;;;;;;0.20;0.20;;;;;;;;;;6269514;28;20074;-92
2024/01/15 11:47:28;;;;;;;0.20;0.20;;;;;;;;;;6256665;28;20024;-92
2024/01/15 11:50:30;;;;;;;0.20;0.20;;;;;;;;;;6268103;28;20033;-88
2024/01/15 11:53:40;;;;;;;0.20;0.20;;;;;;;;;;6255262;28;20395;-88
2024/01/15 11:56:41;;;;;;;0.20;0.20;;;;;;;;;;6267565;28;20032;-88
2024/01/15 11:59:42;;;;;;;0.23;0.23;;;;;;;;;;6271628;28;20115;-92
2024/01/15 12:02:44;;;;;;;0.30;0.30;;;;;;;;;;6258090;28;20036;-91
2024/01/15 12:05:45;;;;;;;0.20;0.20;;;;;;;;;;6254225;28;20392;-92
2024/01/15 12:08:45;;;;;;;0.20;0.20;;;;;;;;;;6268151;28;20087;-92
2024/01/15 12:11:50;;;;;;;0.20;0.20;;;;;;;;;;6269045;28;20035;-92
2024/01/15 12:14:51;;;;;;;0.30;0.30;;;;;;;;;;6269143;28;20039;-92
2024/01/15 12:17:51;;;;;;;0.20;0.20;;;;;;;;;;6259912;28;20372;-92
2024/01/15 12:20:54;;;;;;;0.20;0.20;;;;;;;;;;6268679;28;20044;-91
2024/01/15 12:23:55;;;;;;;0.20;0.20;;;;;;;;;;6275928;28;20363;-92
2024/01/15 12:26:56;;;;;;;0.20;0.20;;;;;;;;;;6272146;28;20032;-92
2024/01/15 12:29:58;;;;;;;0.27;0.27;;;;;;;;;;6268827;28;20029;-92
2024/01/15 12:33:02;;;;;;;0.20;0.20;;;;;;;;;;6265405;28;20013;-91
2024/01/15 12:36:03;;;;;;;0.30;0.30;;;;;;;;;;6267181;28;20100;-91
2024/01/15 12:39:04;;;;;;;0.20;0.20;;;;;;;;;;6266415;28;20629;-92
2024/01/15 12:42:05;;;;;;;0.25;0.25;;;;;;;;;;6268588;28;20441;-91
2024/01/15 12:45:06;;;;;;;0.30;0.30;;;;;;;;;;6262775;28;20017;-91
2024/01/15 12:48:06;;;;;;;0.20;0.20;;;;;;;;;;6261476;28;20021;-91
2024/01/15 12:51:07;;;;;;;0.20;0.20;;;;;;;;;;6262831;28;20387;-91
2024/01/15 12:54:08;;;;;;;0.20;0.20;;;;;;;;;;6262266;28;20394;-91
2024/01/15 12:57:08;;;;;;;0.20;0.20;;;;;;;;;;6265414;28;20025;-90
2024/01/15 13:00:12;;;;;;;0.20;0.20;;;;;;;;;;6258883;28;20079;-87
2024/01/15 13:03:13;;;;;;;0.20;0.20;;;;;;;;;;6268041;28;20035;-87
2024/01/15 13:06:13;;;;;;;0.20;0.20;;;;;;;;;;6267459;28;20467;-87
2024/01/15 13:09:14;;;;;;;0.27;0.27;;;;;;;;;;6260742;28;20017;-86
2024/01/15 13:12:14;;;;;;;0.20;0.20;;;;;;;;;;6267155;28;20106;-87
2024/01/15 13:15:15;;;;;;;0.20;0.20;;;;;;;;;;6263379;28;20079;-86
2024/01/15 13:18:15;;;;;;;0.20;0.20;;;;;;;;;;6268055;28;20020;-88
2024/01/15 13:21:16;;;;;;;0.20;0.20;;;;;;;;;;6264626;28;20512;-89
2024/01/15 13:24:16;;;;;;;0.20;0.20;;;;;;;;;;6265848;28;20461;-88
2024/01/15 13:27:17;;;;;;;0.30;0.30;;;;;;;;;;6252360;28;20021;-89
2024/01/15 13:30:17;;;;;;;0.20;0.20;;;;;;;;;;6265069;28;20031;-88
2024/01/15 13:33:17;;;;;;;0.20;0.20;;;;;;;;;;6266527;28;20029;-89
2024/01/15 13:36:18;;;;;;;0.20;0.20;;;;;;;;;;6264882;28;20191;-89
2024/01/15 13:39:19;;;;;;;0.20;0.20;;;;;;;;;;6256998;28;20112;-88
2024/01/15 13:42:23;;;;;;;0.30;0.30;;;;;;;;;;6255685;28;20032;-87
2024/01/15 13:45:23;;;;;;;0.30;0.30;;;;;;;;;;6267098;28;20020;-87
2024/01/15 13:48:24;;;;;;;0.20;0.20;;;;;;;;;;6265676;28;20040;-87
2024/01/15 13:51:24;;;;;;;0.20;0.20;;;;;;;;;;6255586;28;20025;-87
2024/01/15 13:54:24;;;;;;;0.20;0.20;;;;;;;;;;6266888;28;20471;-88
2024/01/15 13:57:24;;;;;;;0.20;0.20;;;;;;;;;;6265355;28;20044;-88
2024/01/15 14:00:25;;;;;;;0.20;0.20;;;;;;;;;;6264510;28;20040;-88
2024/01/15 14:03:28;;;;;;;0.20;0.20;;;;;;;;;;6245498;28;20025;-88
2024/01/15 14:06:28;;;;;;;0.20;0.20;;;;;;;;;;6266782;28;20957;-88
2024/01/15 14:09:29;;;;;;;0.23;0.23;;;;;;;;;;6275375;28;20020;-88
2024/01/15 14:12:29;;;;;;;0.20;0.20;;;;;;;;;;6258729;28;20035;-88
2024/01/15 14:15:29;;;;;;;0.20;0.20;;;;;;;;;;6264856;28;20394;-88
2024/01/15 14:18:29;;;;;;;0.20;0.20;;;;;;;;;;6253079;28;20104;-88
2024/01/15 14:21:30;;;;;;;0.20;0.20;;;;;;;;;;6265869;28;20052;-88
2024/01/15 14:24:30;;;;;;;0.30;0.30;;;;;;;;;;6253808;28;20486;-87
2024/01/15 14:27:30;;;;;;;0.20;0.20;;;;;;;;;;6265738;28;20460;-87
2024/01/15 14:30:30;;;;;;;0.20;0.20;;;;;;;;;;6253059;28;20013;-87
2024/01/15 14:33:31;;;;;;;0.20;0.20;;;;;;;;;;6264212;28;20063;-87
2024/01/15 14:36:31;;;;;;;0.20;0.20;;;;;;;;;;6261428;28;20028;-87
2024/01/15 14:39:34;;;;;;;0.20;0.20;;;;;;;;;;6266693;28;20132;-87
2024/01/15 14:42:34;;;;;;;0.20;0.20;;;;;;;;;;6257214;28;20112;-87
2024/01/15 14:45:34;;;;;;;0.20;0.20;;;;;;;;;;6264347;28;20024;-87
2024/01/15 14:48:35;;;;;;;0.20;0.20;;;;;;;;;;6261139;28;20040;-87
2024/01/15 14:51:35;;;;;;;0.30;0.30;;;;;;;;;;6263737;28;20052;-87
2024/01/15 14:54:35;;;;;;;0.20;0.20;;;;;;;;;;6258742;28;20118;-87
2024/01/15 14:57:36;;;;;;;0.20;0.20;;;;;;;;;;6255879;28;20130;-88
2024/01/15 15:00:37;;;;;;;0.20;0.20;;;;;;;;;;6258940;28;20025;-87
2024/01/15 15:03:37;;;;;;;0.20;0.20;;;;;;;;;;6250343;28;20120;-87
2024/01/15 15:06:37;;;;;;;0.20;0.20;;;;;;;;;;6264631;28;20017;-87
2024/01/15 15:09:38;;;;;;;0.20;0.20;;;;;;;;;;6250888;28;20029;-87
2024/01/15 15:12:38;;;;;;;0.20;0.20;;;;;;;;;;6267750;28;20021;-88
2024/01/15 15:15:38;;;;;;;0.20;0.20;;;;;;;;;;6265761;28;20082;-88
2024/01/15 15:18:39;;;;;;;0.20;0.20;;;;;;;;;;6256245;28;20495;-88
2024/01/15 15:21:41;;;;;;;0.30;0.30;;;;;;;;;;6270394;28;20528;-88
2024/01/15 15:24:42;;;;;;;0.20;0.20;;;;;;;;;;6258394;28;20033;-88
2024/01/15 15:27:42;;;;;;;0.27;0.27;;;;;;;;;;6280333;28;20045;-88
2024/01/15 15:30:43;;;;;;;0.20;0.20;;;;;;;;;;6267303;28;20206;-88
2024/01/15 15:33:44;;;;;;;0.20;0.20;;;;;;;;;;6268076;28;20037;-88
2024/01/15 15:36:44;;;;;;;0.30;0.30;;;;;;;;;;6266263;28;20029;-88
2024/01/15 15:39:45;;;;;;;0.20;0.20;;;;;;;;;;6263262;28;20108;-88
2024/01/15 15:42:45;;;;;;;0.27;0.27;;;;;;;;;;6262156;28;20074;-88
2024/01/15 15:45:45;;;;;;;0.30;0.30;;;;;;;;;;6262673;28;20020;-88
2024/01/15 15:48:45;;;;;;;0.20;0.20;;;;;;;;;;6259025;28;20030;-88
2024/01/15 15:51:46;;;;;;;0.20;0.20;;;;;;;;;;6261760;28;20021;-88
2024/01/15 15:54:46;;;;;;;0.20;0.20;;;;;;;;;;6262681;28;20033;-88
2024/01/15 15:57:46;;;;;;;0.20;0.20;;;;;;;;;;6265780;28;20043;-89
2024/01/15 16:00:47;;;;;;;0.20;0.20;;;;;;;;;;6263057;28;20028;-88
2024/01/15 16:03:47;;;;;;;0.23;0.23;;;;;;;;;;6268687;28;20024;-88
2024/01/15 16:06:47;;;;;;;0.20;0.20;;;;;;;;;;6276583;28;20051;-88
2024/01/15 16:09:48;;;;;;;0.20;0.20;;;;;;;;;;6256621;28;20009;-88
2024/01/15 16:12:48;;;;;;;0.20;0.20;;;;;;;;;;6254758;28;20017;-88
2024/01/15 16:15:48;;;;;;;0.20;0.20;;;;;;;;;;6267996;28;20028;-88
2024/01/15 16:18:49;;;;;;;0.30;0.30;;;;;;;;;;6269632;28;20180;-87
2024/01/15 16:21:49;;;;;;;0.20;0.20;;;;;;;;;;6268612;28;20484;-88
2024/01/15 16:24:49;;;;;;;0.20;0.20;;;;;;;;;;6245444;28;20025;-88
2024/01/15 16:27:49;;;;;;;0.20;0.20;;;;;;;;;;6251765;28;20095;-88
2024/01/15 16:30:50;;;;;;;0.30;0.30;;;;;;;;;;6262535;28;20040;-89
2024/01/15 16:33:50;;;;;;;0.20;0.20;;;;;;;;;;6269278;28;20033;-88
2024/01/15 16:36:51;;;;;;;0.20;0.20;;;;;;;;;;6248131;28;20035;-88
2024/01/15 16:39:51;;;;;;;0.23;0.23;;;;;;;;;;6294905;28;20023;-88
2024/01/15 16:42:51;;;;;;;0.20;0.20;;;;;;;;;;6278645;28;20025;-88
2024/01/15 16:45:51;;;;;;;0.20;0.20;;;;;;;;;;6275709;28;20013;-88
2024/01/15 16:48:53;;;;;;;0.20;0.20;;;;;;;;;;6258843;28;20028;-89
2024/01/15 16:51:53;;;;;;;0.20;0.20;;;;;;;;;;6267541;28;20131;-88
2024/01/15 16:54:54;;;;;;;0.20;0.20;;;;;;;;;;6258390;28;20027;-88
2024/01/15 16:57:55;;;;;;;0.20;0.20;;;;;;;;;;6262717;28;20021;-89
2024/01/15 17:00:56;;;;;;;0.20;0.20;;;;;;;;;;6259595;28;20399;-88
2024/01/15 17:03:56;;;;;;;0.20;0.20;;;;;;;;;;6264352;28;20028;-88
2024/01/15 17:06:59;;;;;;;0.20;0.20;;;;;;;;;;6262934;28;20053;-88
2024/01/15 17:09:59;;;;;;;0.20;0.20;;;;;;;;;;6265455;28;20028;-88
2024/01/15 17:13:02;;;;;;;0.30;0.30;;;;;;;;;;6265446;28;20483;-88
2024/01/15 17:16:02;;;;;;;0.20;0.20;;;;;;;;;;6254834;28;20029;-88
2024/01/15 17:19:03;;;;;;;0.20;0.20;;;;;;;;;;6261444;28;20079;-88
2024/01/15 17:22:03;;;;;;;0.30;0.30;;;;;;;;;;6259481;28;20047;-88
2024/01/15 17:25:05;;;;;;;0.20;0.20;;;;;;;;;;6265289;28;20032;-88
2024/01/15 17:28:05;;;;;;;0.20;0.20;;;;;;;;;;6262755;28;20450;-88
2024/01/15 17:31:05;;;;;;;0.20;0.20;;;;;;;;;;6263706;28;20029;-88
2024/01/15 17:34:06;;;;;;;0.30;0.30;;;;;;;;;;6255177;28;20028;-88
2024/01/15 17:37:06;;;;;;;0.20;0.20;;;;;;;;;;6263402;28;20402;-88
2024/01/15 17:40:06;;;;;;;0.20;0.20;;;;;;;;;;6263442;28;20028;-88
2024/01/15 17:43:08;;;;;;;0.20;0.20;;;;;;;;;;6263905;28;20021;-89
2024/01/15 17:46:08;;;;;;;0.20;0.20;;;;;;;;;;6263807;28;20082;-90
2024/01/15 17:49:09;;;;;;;0.20;0.20;;;;;;;;;;6263988;28;20036;-89
2024/01/15 17:52:12;;;;;;;0.20;0.20;;;;;;;;;;6264966;28;20028;-89
2024/01/15 17:55:12;;;;;;;0.20;0.20;;;;;;;;;;6255107;28;20541;-90
2024/01/15 17:58:12;;;;;;;0.20;0.20;;;;;;;;;;6255366;28;20027;-90
2024/01/15 18:01:13;;;;;;;0.30;0.30;;;;;;;;;;6245693;28;20046;-90
2024/01/15 18:04:15;;;;;;;0.20;0.20;;;;;;;;;;6267425;28;20027;-90